createdAt,value
2023-03-27T00:02:02.549Z,5.01
2023-03-27T00:04:28.979Z,5.05
2023-03-27T00:06:55.502Z,5.02
2023-03-27T00:09:22.044Z,4.92
2023-03-27T00:11:48.967Z,4.85
2023-03-27T00:14:16.136Z,4.86
2023-03-27T00:16:42.735Z,4.84
2023-03-27T00:19:09.731Z,4.82
2023-03-27T00:21:36.149Z,4.83
2023-03-27T00:24:02.606Z,4.86
2023-03-27T00:26:30.551Z,4.85
2023-03-27T00:28:57.086Z,4.84
2023-03-27T00:31:23.606Z,4.81
2023-03-27T00:33:50.328Z,4.84
2023-03-27T00:36:16.969Z,4.87
2023-03-27T00:38:43.809Z,4.89
2023-03-27T00:41:10.913Z,4.89
2023-03-27T00:43:43.492Z,4.90
2023-03-27T00:46:19.102Z,4.88
2023-03-27T00:48:50.030Z,4.90
2023-03-27T00:51:18.397Z,4.94
2023-03-27T00:53:46.909Z,4.98
2023-03-27T00:56:15.659Z,4.99
2023-03-27T00:58:50.952Z,4.99
2023-03-27T01:01:20.150Z,4.95
2023-03-27T01:03:48.884Z,4.89
2023-03-27T01:06:16.990Z,4.81
2023-03-27T01:08:45.480Z,4.76
2023-03-27T01:11:40.842Z,4.73
2023-03-27T01:14:32.110Z,4.69
2023-03-27T01:17:06.898Z,4.60
2023-03-27T01:19:42.323Z,4.60
2023-03-27T01:22:21.963Z,4.57
2023-03-27T01:25:31.801Z,4.60
2023-03-27T01:28:02.949Z,4.64
2023-03-27T01:30:38.698Z,4.66
2023-03-27T01:33:25.854Z,4.71
2023-03-27T01:36:20.185Z,4.70
2023-03-27T01:39:37.190Z,4.72
2023-03-27T01:42:16.600Z,4.69
2023-03-27T01:44:48.435Z,4.74
2023-03-27T01:47:41.242Z,4.78
2023-03-27T01:50:21.425Z,4.77
2023-03-27T01:52:54.027Z,4.75
2023-03-27T01:55:26.556Z,4.73
2023-03-27T01:58:03.174Z,4.75
2023-03-27T02:00:52.474Z,4.75
2023-03-27T02:03:35.733Z,4.82
2023-03-27T02:06:11.424Z,4.82
2023-03-27T02:08:55.029Z,4.80
2023-03-27T02:11:26.642Z,4.77
2023-03-27T02:14:01.430Z,4.78
2023-03-27T02:16:35.948Z,4.75
2023-03-27T02:19:12.293Z,4.69
2023-03-27T02:21:38.731Z,4.62
2023-03-27T02:24:06.099Z,4.60
2023-03-27T02:26:33.690Z,4.52
2023-03-27T02:29:34.108Z,4.46
2023-03-27T02:32:12.598Z,4.38
2023-03-27T02:35:17.622Z,4.35
2023-03-27T02:37:56.547Z,4.32
2023-03-27T02:40:29.078Z,4.26
2023-03-27T02:43:07.119Z,4.16
2023-03-27T02:45:49.413Z,4.07
2023-03-27T02:48:33.786Z,4.00
2023-03-27T02:51:13.816Z,3.92
2023-03-27T02:53:48.558Z,3.79
2023-03-27T02:56:17.667Z,3.77
2023-03-27T02:58:57.152Z,3.79
2023-03-27T03:01:31.887Z,3.79
2023-03-27T03:04:14.420Z,3.78
2023-03-27T03:06:42.501Z,3.76
2023-03-27T03:09:10.247Z,3.81
2023-03-27T03:11:46.062Z,3.81
2023-03-27T03:14:13.106Z,3.82
2023-03-27T03:16:39.806Z,3.79
2023-03-27T03:19:06.338Z,3.75
2023-03-27T03:21:32.747Z,3.74
2023-03-27T03:24:00.048Z,3.74
2023-03-27T03:26:27.144Z,3.76
2023-03-27T03:29:00.405Z,3.77
2023-03-27T03:31:42.682Z,3.76
2023-03-27T03:34:14.429Z,3.78
2023-03-27T03:36:44.874Z,3.77
2023-03-27T03:39:12.591Z,3.74
2023-03-27T03:41:39.306Z,3.71
2023-03-27T03:44:05.753Z,3.65
2023-03-27T03:46:32.241Z,3.62
2023-03-27T03:48:59.436Z,3.56
2023-03-27T03:51:26.246Z,3.52
2023-03-27T03:53:52.849Z,3.49
2023-03-27T03:56:19.226Z,3.44
2023-03-27T03:58:45.674Z,3.34
2023-03-27T04:01:12.600Z,3.30
2023-03-27T04:03:39.237Z,3.24
2023-03-27T04:06:07.537Z,3.18
2023-03-27T04:08:35.002Z,3.18
2023-03-27T04:11:01.560Z,3.17
2023-03-27T04:13:28.033Z,3.14
2023-03-27T04:15:55.328Z,3.10
2023-03-27T04:18:24.592Z,3.12
2023-03-27T04:20:51.316Z,3.13
2023-03-27T04:23:21.483Z,3.18
2023-03-27T04:25:47.943Z,3.19
2023-03-27T04:28:16.574Z,3.23
2023-03-27T04:30:50.193Z,3.23
2023-03-27T04:33:19.618Z,3.18
2023-03-27T04:35:47.018Z,3.11
2023-03-27T04:38:32.948Z,3.04
2023-03-27T04:40:59.376Z,2.99
2023-03-27T04:43:28.728Z,3.02
2023-03-27T04:45:55.119Z,3.01
2023-03-27T04:48:22.150Z,2.98
2023-03-27T04:50:51.650Z,2.96
2023-03-27T04:53:20.416Z,2.96
2023-03-27T04:55:51.119Z,2.93
2023-03-27T04:58:18.667Z,2.94
2023-03-27T05:00:50.352Z,2.95
2023-03-27T05:03:18.954Z,2.96
2023-03-27T05:05:50.057Z,3.01
2023-03-27T05:08:17.135Z,3.07
2023-03-27T05:10:44.875Z,3.05
2023-03-27T05:13:11.573Z,3.06
2023-03-27T05:15:38.969Z,3.09
2023-03-27T05:18:07.153Z,3.11
2023-03-27T05:20:34.131Z,3.12
2023-03-27T05:23:00.857Z,3.09
2023-03-27T05:25:27.970Z,3.03
2023-03-27T05:27:54.580Z,3.04
2023-03-27T05:30:23.180Z,3.05
2023-03-27T05:32:54.126Z,3.03
2023-03-27T05:35:23.263Z,3.03
2023-03-27T05:37:52.475Z,3.02
2023-03-27T05:40:22.188Z,2.95
2023-03-27T05:42:50.336Z,2.94
2023-03-27T05:45:17.867Z,2.96
2023-03-27T05:47:55.979Z,2.99
2023-03-27T05:50:26.428Z,2.98
2023-03-27T05:53:01.455Z,2.90
2023-03-27T05:55:28.335Z,2.85
2023-03-27T05:57:55.262Z,2.85
2023-03-27T06:00:26.247Z,2.82
2023-03-27T06:02:57.566Z,2.88
2023-03-27T06:05:25.005Z,2.89
2023-03-27T06:07:52.025Z,2.86
2023-03-27T06:10:22.254Z,2.81
2023-03-27T06:12:49.277Z,2.83
2023-03-27T06:15:16.216Z,2.86
2023-03-27T06:17:46.619Z,2.86
2023-03-27T06:20:14.998Z,2.86
2023-03-27T06:22:43.847Z,2.89
2023-03-27T06:25:10.687Z,2.89
2023-03-27T06:27:37.923Z,2.91
2023-03-27T06:30:05.068Z,2.90
2023-03-27T06:32:31.566Z,2.92
2023-03-27T06:34:58.057Z,3.03
2023-03-27T06:37:25.045Z,3.11
2023-03-27T06:39:52.080Z,3.15
2023-03-27T06:42:18.577Z,3.21
2023-03-27T06:44:45.063Z,3.32
2023-03-27T06:47:12.678Z,3.51
2023-03-27T06:49:39.256Z,3.65
2023-03-27T06:52:06.855Z,3.67
2023-03-27T06:54:33.667Z,3.74
2023-03-27T06:57:01.558Z,3.91
2023-03-27T06:59:37.174Z,4.06
2023-03-27T07:02:03.908Z,4.24
2023-03-27T07:04:30.320Z,4.33
2023-03-27T07:06:56.978Z,4.40
2023-03-27T07:09:23.372Z,4.47
2023-03-27T07:11:49.742Z,4.46
2023-03-27T07:14:16.164Z,4.59
2023-03-27T07:16:42.744Z,4.64
2023-03-27T07:19:09.435Z,4.61
2023-03-27T07:21:35.875Z,4.72
2023-03-27T07:24:02.349Z,4.81
2023-03-27T07:26:29.361Z,4.90
2023-03-27T07:28:55.944Z,5.00
2023-03-27T07:33:52.202Z,5.25
2023-03-27T07:36:18.758Z,5.38
2023-03-27T07:38:46.722Z,5.57
2023-03-27T07:41:13.634Z,5.65
2023-03-27T07:43:40.029Z,5.71
2023-03-27T07:46:06.594Z,5.80
2023-03-27T07:48:35.727Z,5.91
2023-03-27T07:51:13.335Z,6.01
2023-03-27T07:53:41.466Z,5.93
2023-03-27T07:56:08.842Z,5.99
2023-03-27T07:58:35.306Z,6.13
2023-03-27T08:01:02.522Z,6.27
2023-03-27T08:03:30.850Z,6.38
2023-03-27T08:05:59.397Z,6.48
2023-03-27T08:08:26.727Z,6.45
2023-03-27T08:10:57.506Z,6.52
2023-03-27T08:13:24.174Z,6.69
2023-03-27T08:15:50.899Z,6.80
2023-03-27T08:18:17.327Z,6.64
2023-03-27T08:20:43.866Z,6.67
2023-03-27T08:23:10.692Z,6.44
2023-03-27T08:25:37.147Z,6.64
2023-03-27T08:28:03.634Z,6.78
2023-03-27T08:30:30.587Z,6.94
2023-03-27T08:32:58.257Z,7.09
2023-03-27T08:35:24.786Z,7.09
2023-03-27T08:37:52.720Z,7.04
2023-03-27T08:40:23.488Z,7.03
2023-03-27T08:42:54.102Z,7.18
2023-03-27T08:45:27.053Z,7.30
2023-03-27T08:48:07.258Z,7.59
2023-03-27T08:50:40.930Z,7.66
2023-03-27T08:53:17.622Z,7.69
2023-03-27T08:55:44.673Z,7.76
2023-03-27T08:58:21.508Z,7.79
2023-03-27T09:00:56.515Z,7.46
2023-03-27T09:03:31.372Z,7.18
2023-03-27T09:06:06.327Z,7.28
2023-03-27T09:08:52.138Z,7.85
2023-03-27T09:11:37.499Z,8.25
2023-03-27T09:14:17.968Z,8.39
2023-03-27T09:16:49.366Z,8.74
2023-03-27T09:19:44.123Z,9.09
2023-03-27T09:22:24.780Z,8.54
2023-03-27T09:24:54.898Z,8.35
2023-03-27T09:27:26.641Z,7.50
2023-03-27T09:30:24.727Z,6.44
2023-03-27T09:32:55.394Z,5.83
2023-03-27T09:35:22.622Z,5.05
2023-03-27T09:37:54.111Z,4.70
2023-03-27T09:40:36.562Z,4.38
2023-03-27T09:43:11.118Z,4.20
2023-03-27T09:45:39.200Z,4.07
2023-03-27T09:48:10.876Z,3.95
2023-03-27T09:50:45.723Z,4.10
2023-03-27T09:53:22.914Z,4.29
2023-03-27T09:55:53.438Z,4.85
2023-03-27T09:58:29.504Z,5.57
2023-03-27T10:01:34.298Z,6.23
2023-03-27T10:04:01.178Z,6.75
2023-03-27T10:06:38.624Z,6.78
2023-03-27T10:09:34.290Z,6.94
2023-03-27T10:12:09.590Z,7.28
2023-03-27T10:14:47.246Z,7.64
2023-03-27T10:17:32.054Z,7.65
2023-03-27T10:20:08.983Z,7.88
2023-03-27T10:22:38.912Z,8.16
2023-03-27T10:25:20.990Z,7.94
2023-03-27T10:27:47.816Z,8.25
2023-03-27T10:30:27.806Z,8.78
2023-03-27T10:32:54.309Z,9.08
2023-03-27T10:35:27.033Z,9.37
2023-03-27T10:37:55.049Z,9.18
2023-03-27T10:40:26.302Z,8.82
2023-03-27T10:42:56.773Z,8.57
2023-03-27T10:45:23.551Z,8.20
2023-03-27T10:47:56.872Z,7.82
2023-03-27T10:50:53.116Z,7.18
2023-03-27T10:53:33.080Z,6.61
2023-03-27T10:56:16.961Z,6.43
2023-03-27T10:58:43.389Z,7.05
2023-03-27T11:01:20.934Z,8.02
2023-03-27T11:03:53.798Z,8.34
2023-03-27T11:06:27.155Z,8.87
2023-03-27T11:09:06.570Z,9.55
2023-03-27T11:11:38.723Z,9.37
2023-03-27T11:14:13.860Z,8.61
2023-03-27T11:16:50.884Z,8.22
2023-03-27T11:19:54.646Z,8.85
2023-03-27T11:22:32.581Z,9.96
2023-03-27T11:25:06.539Z,10.04
2023-03-27T11:27:41.240Z,9.83
2023-03-27T11:30:08.299Z,10.40
2023-03-27T11:32:42.511Z,9.84
2023-03-27T11:35:24.405Z,8.28
2023-03-27T11:37:57.356Z,7.11
2023-03-27T11:40:42.037Z,6.34
2023-03-27T11:43:16.395Z,5.76
2023-03-27T11:46:07.946Z,5.53
2023-03-27T11:48:58.762Z,5.58
2023-03-27T11:51:53.853Z,6.27
2023-03-27T11:54:48.343Z,7.74
2023-03-27T11:57:26.242Z,8.61
2023-03-27T12:00:21.954Z,9.06
2023-03-27T12:02:57.321Z,9.20
2023-03-27T12:05:40.197Z,9.65
2023-03-27T12:08:45.928Z,9.87
2023-03-27T12:11:12.542Z,9.96
2023-03-27T12:14:08.917Z,9.94
2023-03-27T12:16:46.552Z,10.12
2023-03-27T12:19:29.750Z,10.35
2023-03-27T12:22:25.483Z,10.70
2023-03-27T12:25:18.359Z,9.42
2023-03-27T12:27:55.754Z,8.02
2023-03-27T12:30:57.118Z,7.49
2023-03-27T12:33:31.587Z,7.87
2023-03-27T12:36:02.748Z,8.22
2023-03-27T12:38:32.579Z,8.16
2023-03-27T12:41:18.822Z,8.04
2023-03-27T12:43:47.449Z,7.50
2023-03-27T12:46:24.218Z,7.40
2023-03-27T12:49:06.026Z,7.11
2023-03-27T12:51:52.174Z,7.18
2023-03-27T12:54:21.545Z,7.27
2023-03-27T12:56:58.003Z,7.88
2023-03-27T12:59:28.438Z,7.99
2023-03-27T13:02:16.510Z,8.21
2023-03-27T13:05:28.049Z,8.41
2023-03-27T13:08:26.198Z,8.76
2023-03-27T13:11:12.957Z,8.77
2023-03-27T13:14:11.509Z,8.77
2023-03-27T13:16:50.172Z,8.68
2023-03-27T13:19:25.617Z,8.96
2023-03-27T13:22:17.476Z,8.97
2023-03-27T13:25:14.710Z,9.00
2023-03-27T13:28:13.905Z,9.19
2023-03-27T13:30:52.122Z,9.13
2023-03-27T13:33:30.344Z,7.86
2023-03-27T13:36:32.173Z,7.47
2023-03-27T13:39:05.957Z,7.87
2023-03-27T13:41:44.568Z,7.68
2023-03-27T13:44:14.300Z,7.40
2023-03-27T13:46:50.886Z,6.98
2023-03-27T13:49:59.152Z,6.94
2023-03-27T13:52:41.261Z,7.07
2023-03-27T13:55:19.357Z,7.45
2023-03-27T13:57:59.655Z,7.86
2023-03-27T14:00:42.644Z,8.43
2023-03-27T14:03:36.800Z,8.88
2023-03-27T14:06:29.433Z,9.07
2023-03-27T14:09:26.944Z,9.43
2023-03-27T14:12:15.226Z,9.75
2023-03-27T14:15:00.235Z,9.73
2023-03-27T14:17:41.467Z,9.42
2023-03-27T14:20:19.092Z,9.37
2023-03-27T14:23:00.809Z,9.66
2023-03-27T14:25:36.430Z,10.07
2023-03-27T14:28:02.954Z,10.16
2023-03-27T14:30:39.971Z,10.48
2023-03-27T14:33:08.946Z,10.35
2023-03-27T14:35:44.305Z,10.40
2023-03-27T14:38:26.141Z,10.58
2023-03-27T14:41:00.447Z,9.84
2023-03-27T14:43:29.477Z,9.03
2023-03-27T14:46:00.531Z,9.19
2023-03-27T14:48:37.171Z,9.42
2023-03-27T14:51:09.552Z,9.68
2023-03-27T14:53:44.502Z,9.69
2023-03-27T14:56:29.925Z,10.10
2023-03-27T14:59:00.073Z,10.04
2023-03-27T15:01:31.742Z,9.70
2023-03-27T15:03:59.922Z,9.19
2023-03-27T15:06:26.566Z,8.62
2023-03-27T15:09:05.361Z,8.17
2023-03-27T15:11:38.272Z,7.92
2023-03-27T15:14:05.697Z,8.27
2023-03-27T15:16:35.807Z,8.71
2023-03-27T15:19:17.206Z,9.25
2023-03-27T15:21:58.532Z,8.92
2023-03-27T15:24:43.566Z,8.43
2023-03-27T15:27:20.006Z,8.63
2023-03-27T15:29:57.489Z,8.69
2023-03-27T15:32:30.084Z,8.62
2023-03-27T15:35:03.319Z,8.53
2023-03-27T15:37:31.703Z,8.60
2023-03-27T15:40:13.240Z,8.73
2023-03-27T15:42:52.169Z,8.57
2023-03-27T15:45:34.215Z,8.34
2023-03-27T15:48:23.165Z,8.14
2023-03-27T15:51:10.404Z,8.06
2023-03-27T15:53:43.113Z,8.16
2023-03-27T15:56:37.933Z,8.20
2023-03-27T15:59:06.836Z,8.25
2023-03-27T16:01:39.616Z,8.27
2023-03-27T16:04:16.307Z,8.50
2023-03-27T16:06:51.196Z,8.49
2023-03-27T16:09:23.688Z,8.40
2023-03-27T16:11:50.804Z,8.46
2023-03-27T16:14:32.370Z,8.47
2023-03-27T16:17:20.408Z,8.44
2023-03-27T16:20:23.487Z,8.02
2023-03-27T16:22:50.938Z,7.67
2023-03-27T16:25:17.547Z,7.45
2023-03-27T16:27:50.849Z,7.39
2023-03-27T16:30:32.271Z,7.66
2023-03-27T16:32:59.877Z,7.62
2023-03-27T16:35:28.171Z,7.61
2023-03-27T16:37:54.911Z,7.57
2023-03-27T16:40:21.477Z,7.52
2023-03-27T16:42:47.871Z,7.49
2023-03-27T16:45:14.414Z,7.54
2023-03-27T16:47:41.769Z,7.64
2023-03-27T16:50:16.689Z,7.59
2023-03-27T16:52:43.103Z,7.52
2023-03-27T16:55:09.658Z,7.30
2023-03-27T16:57:36.454Z,7.21
2023-03-27T17:00:03.464Z,7.12
2023-03-27T17:02:31.321Z,7.05
2023-03-27T17:04:59.906Z,6.98
2023-03-27T17:07:27.406Z,6.89
2023-03-27T17:09:54.099Z,6.66
2023-03-27T17:12:20.581Z,6.57
2023-03-27T17:14:47.174Z,6.39
2023-03-27T17:17:13.992Z,6.24
2023-03-27T17:19:40.666Z,6.18
2023-03-27T17:22:07.116Z,6.14
2023-03-27T17:24:45.625Z,6.12
2023-03-27T17:27:20.245Z,6.10
2023-03-27T17:29:46.603Z,6.05
2023-03-27T17:32:13.018Z,6.10
2023-03-27T17:34:40.028Z,6.18
2023-03-27T17:37:06.743Z,6.19
2023-03-27T17:39:33.928Z,6.14
2023-03-27T17:42:00.387Z,6.05
2023-03-27T17:44:27.002Z,6.02
2023-03-27T17:46:53.415Z,5.98
2023-03-27T17:49:19.935Z,5.97
2023-03-27T17:51:46.401Z,5.95
2023-03-27T17:54:12.906Z,5.94
2023-03-27T17:56:40.909Z,5.99
2023-03-27T17:59:10.052Z,6.01
2023-03-27T18:01:36.478Z,5.95
2023-03-27T18:04:03.604Z,5.89
2023-03-27T18:06:30.338Z,5.93
2023-03-27T18:08:56.749Z,5.88
2023-03-27T18:11:23.179Z,5.89
2023-03-27T18:13:52.915Z,5.92
2023-03-27T18:16:21.565Z,5.99
2023-03-27T18:18:48.132Z,5.99
2023-03-27T18:21:16.191Z,6.02
2023-03-27T18:23:46.287Z,5.90
2023-03-27T18:26:13.343Z,5.78
2023-03-27T18:28:39.788Z,5.73
2023-03-27T18:31:08.493Z,5.68
2023-03-27T18:33:35.251Z,5.58
2023-03-27T18:36:03.093Z,5.52
2023-03-27T18:38:30.040Z,5.46
2023-03-27T18:40:57.780Z,5.46
2023-03-27T18:43:24.681Z,5.42
2023-03-27T18:46:02.621Z,5.42
2023-03-27T18:48:31.026Z,5.31
2023-03-27T18:51:00.388Z,5.26
2023-03-27T18:53:27.370Z,5.22
2023-03-27T18:55:54.291Z,5.19
2023-03-27T18:58:24.303Z,5.15
2023-03-27T19:00:51.464Z,5.15
2023-03-27T19:03:20.067Z,5.09
2023-03-27T19:05:47.741Z,5.06
2023-03-27T19:08:15.365Z,5.04
2023-03-27T19:10:41.830Z,5.00
2023-03-27T19:13:08.434Z,4.96
2023-03-27T19:15:35.629Z,4.86
2023-03-27T19:18:02.831Z,4.78
2023-03-27T19:20:29.412Z,4.67
2023-03-27T19:22:55.995Z,4.64
2023-03-27T19:25:22.391Z,4.66
2023-03-27T19:27:48.892Z,4.67
2023-03-27T19:30:15.790Z,4.66
2023-03-27T19:32:42.253Z,4.67
2023-03-27T19:35:09.310Z,4.68
2023-03-27T19:37:35.741Z,4.62
2023-03-27T19:40:05.218Z,4.59
2023-03-27T19:42:31.695Z,4.58
2023-03-27T19:44:58.130Z,4.53
2023-03-27T19:47:24.509Z,4.49
2023-03-27T19:49:50.918Z,4.45
2023-03-27T19:52:19.181Z,4.42
2023-03-27T19:54:46.334Z,4.46
2023-03-27T19:57:12.863Z,4.45
2023-03-27T19:59:39.494Z,4.41
2023-03-27T20:02:06.725Z,4.38
2023-03-27T20:04:33.453Z,4.40
2023-03-27T20:07:01.731Z,4.38
2023-03-27T20:09:28.371Z,4.38
2023-03-27T20:11:55.070Z,4.34
2023-03-27T20:14:21.532Z,4.31
2023-03-27T20:16:48.154Z,4.32
2023-03-27T20:19:16.591Z,4.29
2023-03-27T20:21:43.687Z,4.27
2023-03-27T20:24:13.243Z,4.29
2023-03-27T20:26:41.593Z,4.32
2023-03-27T20:29:13.424Z,4.33
2023-03-27T20:31:40.772Z,4.31
2023-03-27T20:34:07.778Z,4.27
2023-03-27T20:36:35.284Z,4.24
2023-03-27T20:39:06.290Z,4.18
2023-03-27T20:41:39.235Z,4.12
2023-03-27T20:44:34.855Z,4.08
2023-03-27T20:47:03.517Z,4.03
2023-03-27T20:49:40.594Z,4.03
2023-03-27T20:52:08.487Z,4.02
2023-03-27T20:54:35.074Z,3.96
2023-03-27T20:57:02.520Z,3.92
2023-03-27T20:59:29.756Z,3.90
2023-03-27T21:01:56.388Z,3.85
2023-03-27T21:04:25.591Z,3.81
2023-03-27T21:06:54.715Z,3.74
2023-03-27T21:09:22.887Z,3.67
2023-03-27T21:11:49.482Z,3.60
2023-03-27T21:14:16.592Z,3.54
2023-03-27T21:16:43.645Z,3.49
2023-03-27T21:19:11.665Z,3.39
2023-03-27T21:21:38.705Z,3.35
2023-03-27T21:24:06.033Z,3.35
2023-03-27T21:26:32.580Z,3.40
2023-03-27T21:28:59.020Z,3.40
2023-03-27T21:31:25.646Z,3.38
2023-03-27T21:33:52.257Z,3.34
2023-03-27T21:36:18.752Z,3.32
2023-03-27T21:38:45.174Z,3.28
2023-03-27T21:41:16.900Z,3.27
2023-03-27T21:43:43.436Z,3.23
2023-03-27T21:46:10.503Z,3.21
2023-03-27T21:48:37.020Z,3.18
2023-03-27T21:51:06.042Z,3.14
2023-03-27T21:53:32.690Z,3.12
2023-03-27T21:55:59.493Z,3.14
2023-03-27T21:58:26.754Z,3.15
2023-03-27T22:00:56.133Z,3.10
2023-03-27T22:03:23.118Z,3.11
2023-03-27T22:06:01.166Z,3.07
2023-03-27T22:08:37.377Z,3.04
2023-03-27T22:11:03.986Z,3.03
2023-03-27T22:13:30.516Z,3.01
2023-03-27T22:15:57.136Z,2.97
2023-03-27T22:18:24.792Z,3.04
2023-03-27T22:20:51.229Z,3.03
2023-03-27T22:23:17.678Z,2.98
2023-03-27T22:25:51.965Z,2.96
2023-03-27T22:28:18.411Z,2.98
2023-03-27T22:30:44.783Z,2.98
2023-03-27T22:33:11.165Z,2.96
2023-03-27T22:35:37.844Z,2.91
2023-03-27T22:38:04.246Z,2.88
2023-03-27T22:40:30.674Z,2.88
2023-03-27T22:42:57.177Z,2.85
2023-03-27T22:45:23.607Z,2.85
2023-03-27T22:47:50.220Z,2.79
2023-03-27T22:50:16.690Z,2.76
2023-03-27T22:52:43.226Z,2.70
2023-03-27T22:55:09.895Z,2.71
2023-03-27T22:57:36.897Z,2.75
2023-03-27T23:00:05.889Z,2.73
2023-03-27T23:02:32.428Z,2.71
2023-03-27T23:04:58.938Z,2.73
2023-03-27T23:07:25.331Z,2.73
2023-03-27T23:09:51.918Z,2.68
2023-03-27T23:12:18.326Z,2.69
2023-03-27T23:14:44.742Z,2.68
2023-03-27T23:17:11.163Z,2.62
2023-03-27T23:19:37.606Z,2.63
2023-03-27T23:22:04.162Z,2.62
2023-03-27T23:24:31.046Z,2.59
2023-03-27T23:26:57.554Z,2.58
2023-03-27T23:29:24.034Z,2.52
2023-03-27T23:31:50.648Z,2.53
2023-03-27T23:34:17.100Z,2.56
2023-03-27T23:36:43.518Z,2.58
2023-03-27T23:39:10.116Z,2.54
2023-03-27T23:41:36.614Z,2.47
2023-03-27T23:44:03.493Z,2.42
2023-03-27T23:46:30.092Z,2.37
2023-03-27T23:48:56.502Z,2.37
2023-03-27T23:51:23.744Z,2.36
2023-03-27T23:53:50.567Z,2.40
2023-03-27T23:56:17.104Z,2.41
2023-03-27T23:58:43.650Z,2.38
